createdAt,value
2019-02-05T00:00:18.122Z,1.02
2019-02-05T00:01:18.117Z,0.98
2019-02-05T00:02:18.101Z,0.95
2019-02-05T00:03:18.096Z,0.89
2019-02-05T00:04:18.079Z,0.88
2019-02-05T00:05:18.073Z,0.98
2019-02-05T00:06:18.058Z,0.96
2019-02-05T00:07:18.053Z,1.00
2019-02-05T00:08:18.049Z,0.93
2019-02-05T00:09:18.031Z,1.02
2019-02-05T00:10:18.014Z,0.99
2019-02-05T00:11:18.005Z,0.99
2019-02-05T00:12:17.997Z,0.90
2019-02-05T00:13:17.993Z,0.86
2019-02-05T00:14:17.983Z,0.86
2019-02-05T00:15:17.962Z,0.93
2019-02-05T00:16:17.956Z,0.92
2019-02-05T00:17:17.943Z,0.84
2019-02-05T00:18:17.935Z,0.86
2019-02-05T00:19:17.965Z,0.89
2019-02-05T00:20:17.911Z,0.82
2019-02-05T00:21:17.898Z,0.89
2019-02-05T00:22:17.887Z,0.86
2019-02-05T00:23:17.878Z,0.84
2019-02-05T00:24:17.866Z,0.71
2019-02-05T00:25:17.872Z,0.80
2019-02-05T00:26:17.850Z,0.75
2019-02-05T00:27:17.839Z,0.74
2019-02-05T00:28:17.832Z,0.74
2019-02-05T00:29:17.815Z,0.75
2019-02-05T00:30:17.819Z,0.75
2019-02-05T00:31:17.797Z,0.72
2019-02-05T00:32:17.899Z,0.70
2019-02-05T00:33:17.778Z,0.71
2019-02-05T00:34:17.761Z,0.77
2019-02-05T00:35:17.766Z,0.71
2019-02-05T00:36:17.745Z,0.80
2019-02-05T00:37:17.735Z,0.75
2019-02-05T00:38:17.727Z,0.75
2019-02-05T00:39:17.713Z,0.77
2019-02-05T00:40:17.709Z,0.81
2019-02-05T00:41:17.687Z,0.82
2019-02-05T00:42:17.677Z,0.78
2019-02-05T00:43:17.671Z,0.78
2019-02-05T00:44:17.660Z,0.81
2019-02-05T00:45:17.655Z,0.72
2019-02-05T00:46:17.650Z,0.75
2019-02-05T00:47:17.630Z,0.80
2019-02-05T00:48:17.613Z,0.80
2019-02-05T00:49:17.604Z,0.80
2019-02-05T00:50:17.600Z,0.86
2019-02-05T00:51:17.617Z,0.82
2019-02-05T00:52:17.573Z,0.81
2019-02-05T00:53:17.561Z,0.82
2019-02-05T00:54:17.551Z,0.81
2019-02-05T00:55:17.540Z,0.82
2019-02-05T00:56:17.963Z,0.82
2019-02-05T00:57:17.561Z,0.89
2019-02-05T00:58:17.514Z,0.89
2019-02-05T00:59:17.499Z,0.89
2019-02-05T01:00:17.493Z,0.89
2019-02-05T01:01:17.475Z,0.88
2019-02-05T01:02:17.466Z,0.89
2019-02-05T01:03:17.462Z,0.90
2019-02-05T01:04:17.448Z,0.86
2019-02-05T01:05:17.440Z,0.84
2019-02-05T01:06:17.427Z,0.92
2019-02-05T01:07:17.420Z,0.89
2019-02-05T01:08:17.410Z,0.84
2019-02-05T01:09:17.394Z,0.92
2019-02-05T01:10:17.380Z,0.90
2019-02-05T01:11:17.372Z,0.89
2019-02-05T01:12:17.388Z,0.93
2019-02-05T01:13:17.348Z,0.89
2019-02-05T01:14:17.343Z,0.84
2019-02-05T01:15:17.336Z,0.81
2019-02-05T01:16:17.315Z,0.80
2019-02-05T01:17:17.346Z,0.80
2019-02-05T01:18:17.300Z,0.82
2019-02-05T01:19:17.295Z,0.82
2019-02-05T01:20:17.277Z,0.82
2019-02-05T01:21:17.263Z,0.84
2019-02-05T01:22:17.257Z,0.84
2019-02-05T01:23:17.249Z,0.80
2019-02-05T01:24:17.235Z,0.82
2019-02-05T01:25:17.221Z,0.84
2019-02-05T01:26:28.634Z,0.81
2019-02-05T01:27:18.203Z,0.81
2019-02-05T01:28:17.197Z,0.81
2019-02-05T01:29:17.177Z,0.81
2019-02-05T01:30:17.173Z,0.75
2019-02-05T01:31:17.159Z,0.75
2019-02-05T01:32:17.155Z,0.82
2019-02-05T01:33:17.157Z,0.86
2019-02-05T01:34:17.130Z,0.80
2019-02-05T01:35:17.115Z,0.82
2019-02-05T01:36:17.105Z,0.82
2019-02-05T01:37:17.096Z,0.86
2019-02-05T01:38:17.089Z,0.80
2019-02-05T01:39:17.112Z,0.78
2019-02-05T01:40:17.065Z,0.82
2019-02-05T01:41:17.052Z,0.72
2019-02-05T01:42:17.044Z,0.88
2019-02-05T01:43:17.035Z,0.82
2019-02-05T01:44:17.022Z,0.89
2019-02-05T01:45:17.016Z,0.82
2019-02-05T01:46:17.002Z,0.74
2019-02-05T01:47:16.986Z,0.74
2019-02-05T01:48:16.984Z,0.74
2019-02-05T01:49:16.965Z,0.78
2019-02-05T01:50:16.982Z,0.81
2019-02-05T01:51:16.942Z,0.67
2019-02-05T01:52:16.933Z,0.82
2019-02-05T01:53:16.922Z,0.75
2019-02-05T01:54:16.915Z,0.77
2019-02-05T01:55:16.906Z,0.80
2019-02-05T01:56:16.905Z,0.72
2019-02-05T01:57:16.879Z,0.72
2019-02-05T01:58:16.868Z,0.74
2019-02-05T01:59:16.863Z,0.78
2019-02-05T02:00:16.849Z,0.81
2019-02-05T02:01:16.852Z,0.77
2019-02-05T02:02:16.828Z,0.81
2019-02-05T02:03:16.818Z,0.82
2019-02-05T02:04:16.809Z,0.84
2019-02-05T02:05:16.798Z,0.80
2019-02-05T02:06:16.796Z,0.75
2019-02-05T02:07:16.786Z,0.77
2019-02-05T02:08:16.765Z,0.80
2019-02-05T02:09:16.754Z,0.80
2019-02-05T02:10:16.747Z,0.72
2019-02-05T02:11:16.732Z,0.72
2019-02-05T02:12:16.728Z,0.72
2019-02-05T02:13:16.724Z,0.68
2019-02-05T02:14:16.704Z,0.72
2019-02-05T02:15:16.694Z,0.74
2019-02-05T02:16:16.679Z,0.75
2019-02-05T02:17:16.674Z,0.84
2019-02-05T02:18:16.692Z,0.72
2019-02-05T02:19:16.645Z,0.71
2019-02-05T02:20:16.640Z,0.77
2019-02-05T02:21:16.630Z,0.74
2019-02-05T02:22:16.613Z,0.75
2019-02-05T02:23:16.604Z,0.80
2019-02-05T02:24:16.630Z,0.77
2019-02-05T02:25:16.587Z,0.78
2019-02-05T02:26:16.570Z,0.78
2019-02-05T02:27:16.568Z,0.75
2019-02-05T02:28:16.555Z,0.80
2019-02-05T02:29:16.540Z,0.75
2019-02-05T02:30:16.587Z,0.84
2019-02-05T02:31:16.524Z,0.72
2019-02-05T02:32:16.507Z,0.80
2019-02-05T02:33:16.501Z,0.77
2019-02-05T02:34:16.486Z,0.78
2019-02-05T02:35:16.507Z,0.80
2019-02-05T02:36:16.465Z,0.84
2019-02-05T02:37:16.454Z,0.84
2019-02-05T02:38:16.450Z,0.82
2019-02-05T02:39:16.443Z,0.86
2019-02-05T02:40:16.429Z,0.86
2019-02-05T02:41:16.453Z,0.81
2019-02-05T02:42:16.402Z,0.89
2019-02-05T02:43:16.390Z,0.88
2019-02-05T02:44:16.379Z,0.92
2019-02-05T02:45:16.375Z,0.89
2019-02-05T02:46:16.358Z,0.81
2019-02-05T02:47:16.362Z,0.84
2019-02-05T02:48:16.355Z,0.89
2019-02-05T02:49:16.330Z,0.93
2019-02-05T02:50:16.327Z,0.88
2019-02-05T02:51:16.305Z,0.86
2019-02-05T02:52:16.309Z,0.84
2019-02-05T02:53:16.292Z,0.84
2019-02-05T02:54:16.278Z,0.82
2019-02-05T02:55:16.269Z,0.90
2019-02-05T02:56:16.257Z,0.82
2019-02-05T02:57:16.248Z,0.84
2019-02-05T02:58:16.239Z,0.89
2019-02-05T02:59:16.219Z,0.90
2019-02-05T03:00:16.210Z,0.88
2019-02-05T03:01:16.206Z,0.95
2019-02-05T03:02:16.197Z,0.93
2019-02-05T03:03:16.182Z,0.84
2019-02-05T03:04:16.167Z,0.84
2019-02-05T03:05:16.162Z,0.84
2019-02-05T03:06:16.151Z,0.89
2019-02-05T03:07:16.157Z,0.88
2019-02-05T03:08:16.125Z,0.92
2019-02-05T03:09:16.114Z,0.92
2019-02-05T03:10:16.103Z,0.90
2019-02-05T03:11:16.107Z,0.89
2019-02-05T03:12:16.193Z,0.90
2019-02-05T03:13:16.080Z,0.89
2019-02-05T03:14:16.065Z,0.89
2019-02-05T03:15:16.053Z,0.89
2019-02-05T03:16:16.038Z,0.88
2019-02-05T03:17:16.029Z,0.88
2019-02-05T03:18:16.043Z,0.89
2019-02-05T03:19:16.007Z,0.95
2019-02-05T03:20:16.000Z,0.95
2019-02-05T03:21:15.991Z,0.95
2019-02-05T03:22:15.982Z,0.95
2019-02-05T03:23:15.966Z,0.86
2019-02-05T03:24:15.974Z,0.96
2019-02-05T03:25:15.943Z,0.92
2019-02-05T03:26:15.939Z,0.84
2019-02-05T03:27:17.906Z,0.95
2019-02-05T03:28:15.916Z,0.89
2019-02-05T03:29:15.981Z,0.96
2019-02-05T03:30:15.899Z,0.95
2019-02-05T03:31:15.881Z,0.98
2019-02-05T03:32:15.876Z,0.99
2019-02-05T03:33:15.872Z,0.89
2019-02-05T03:34:15.851Z,0.96
2019-02-05T03:35:15.843Z,1.02
2019-02-05T03:36:15.830Z,0.98
2019-02-05T03:37:15.822Z,0.99
2019-02-05T03:38:15.811Z,1.02
2019-02-05T03:39:15.798Z,0.96
2019-02-05T03:40:15.815Z,0.98
2019-02-05T03:41:15.778Z,0.98
2019-02-05T03:42:15.767Z,1.02
2019-02-05T03:43:15.760Z,0.98
2019-02-05T03:44:15.740Z,1.06
2019-02-05T03:45:15.734Z,0.95
2019-02-05T03:46:15.734Z,0.99
2019-02-05T03:47:15.708Z,1.00
2019-02-05T03:48:15.710Z,1.06
2019-02-05T03:49:15.687Z,1.10
2019-02-05T03:50:15.685Z,1.02
2019-02-05T03:51:15.671Z,1.04
2019-02-05T03:52:15.655Z,1.00
2019-02-05T03:53:15.660Z,1.02
2019-02-05T03:54:15.643Z,1.06
2019-02-05T03:55:15.631Z,1.02
2019-02-05T03:56:15.618Z,1.10
2019-02-05T03:57:15.601Z,1.13
2019-02-05T03:58:15.608Z,1.10
2019-02-05T03:59:15.625Z,1.04
2019-02-05T04:00:15.574Z,1.04
2019-02-05T04:01:15.558Z,1.06
2019-02-05T04:02:15.553Z,1.08
2019-02-05T04:03:15.539Z,1.07
2019-02-05T04:04:15.528Z,1.04
2019-02-05T04:05:15.530Z,1.10
2019-02-05T04:06:15.511Z,1.08
2019-02-05T04:07:15.502Z,1.08
2019-02-05T04:08:15.484Z,0.99
2019-02-05T04:09:15.483Z,0.99
2019-02-05T04:10:15.468Z,1.00
2019-02-05T04:11:15.460Z,1.06
2019-02-05T04:12:15.449Z,0.96
2019-02-05T04:13:15.440Z,1.02
2019-02-05T04:14:15.420Z,1.02
2019-02-05T04:15:15.412Z,1.07
2019-02-05T04:16:15.436Z,1.06
2019-02-05T04:17:15.393Z,1.11
2019-02-05T04:18:15.384Z,1.08
2019-02-05T04:19:15.367Z,0.99
2019-02-05T04:20:15.356Z,1.10
2019-02-05T04:21:15.351Z,1.02
2019-02-05T04:22:15.372Z,1.06
2019-02-05T04:23:15.329Z,1.06
2019-02-05T04:24:15.324Z,0.96
2019-02-05T04:25:15.305Z,0.96
2019-02-05T04:26:15.293Z,1.02
2019-02-05T04:27:15.295Z,1.07
2019-02-05T04:28:15.282Z,1.04
2019-02-05T04:29:15.265Z,1.08
2019-02-05T04:30:15.265Z,1.10
2019-02-05T04:31:15.245Z,1.00
2019-02-05T04:32:15.229Z,1.02
2019-02-05T04:33:15.227Z,1.02
2019-02-05T04:34:15.328Z,1.00
2019-02-05T04:35:15.205Z,1.08
2019-02-05T04:36:15.194Z,1.06
2019-02-05T04:37:15.181Z,1.11
2019-02-05T04:38:15.168Z,1.07
2019-02-05T04:39:15.188Z,1.08
2019-02-05T04:40:15.151Z,1.08
2019-02-05T04:41:15.140Z,1.07
2019-02-05T04:42:15.129Z,1.06
2019-02-05T04:43:15.119Z,1.13
2019-02-05T04:44:15.108Z,1.10
2019-02-05T04:45:15.108Z,1.07
2019-02-05T04:46:15.083Z,1.06
2019-02-05T04:47:15.078Z,1.02
2019-02-05T04:48:15.066Z,1.06
2019-02-05T04:49:15.058Z,1.04
2019-02-05T04:50:15.058Z,1.04
2019-02-05T04:51:15.031Z,0.82
2019-02-05T04:52:15.019Z,0.99
2019-02-05T04:53:15.028Z,0.96
2019-02-05T04:54:14.997Z,0.96
2019-02-05T04:55:14.992Z,1.00
2019-02-05T04:56:14.991Z,0.98
2019-02-05T04:57:14.981Z,1.07
2019-02-05T04:58:14.956Z,1.08
2019-02-05T04:59:14.951Z,0.88
2019-02-05T05:00:14.939Z,0.81
2019-02-05T05:01:14.938Z,0.81
2019-02-05T05:02:14.916Z,0.75
2019-02-05T05:03:14.907Z,0.68
2019-02-05T05:04:14.894Z,0.70
2019-02-05T05:05:14.881Z,0.81
2019-02-05T05:06:14.890Z,0.80
2019-02-05T05:07:14.874Z,0.71
2019-02-05T05:08:14.855Z,0.78
2019-02-05T05:09:14.840Z,0.70
2019-02-05T05:10:14.833Z,0.75
2019-02-05T05:11:14.828Z,0.71
2019-02-05T05:12:14.830Z,0.74
2019-02-05T05:13:14.804Z,0.71
2019-02-05T05:14:14.786Z,0.78
2019-02-05T05:15:14.786Z,0.77
2019-02-05T05:16:14.771Z,0.71
2019-02-05T05:17:14.768Z,0.71
2019-02-05T05:18:15.567Z,0.64
2019-02-05T05:19:14.741Z,0.71
2019-02-05T05:20:14.728Z,0.70
2019-02-05T05:21:14.714Z,0.62
2019-02-05T05:22:14.701Z,0.59
2019-02-05T05:23:14.709Z,0.64
2019-02-05T05:24:14.722Z,0.60
2019-02-05T05:25:14.676Z,0.62
2019-02-05T05:26:14.657Z,0.62
2019-02-05T05:27:14.646Z,0.53
2019-02-05T05:28:14.636Z,0.56
2019-02-05T05:29:14.626Z,0.52
2019-02-05T05:30:14.632Z,0.49
2019-02-05T05:31:14.607Z,0.44
2019-02-05T05:32:14.595Z,0.45
2019-02-05T05:33:14.602Z,0.56
2019-02-05T05:34:14.618Z,0.57
2019-02-05T05:35:14.568Z,0.62
2019-02-05T05:36:14.558Z,0.57
2019-02-05T05:37:14.547Z,0.60
2019-02-05T05:38:14.537Z,0.67
2019-02-05T05:39:14.521Z,0.67
2019-02-05T05:40:14.530Z,0.67
2019-02-05T05:41:14.499Z,0.63
2019-02-05T05:42:14.489Z,0.68
2019-02-05T05:43:14.491Z,0.68
2019-02-05T05:44:14.474Z,0.64
2019-02-05T05:45:14.468Z,0.71
2019-02-05T05:46:14.451Z,0.60
2019-02-05T05:47:14.443Z,0.68
2019-02-05T05:48:14.425Z,0.67
2019-02-05T05:49:14.427Z,0.59
2019-02-05T05:50:14.412Z,0.71
2019-02-05T05:51:14.432Z,0.71
2019-02-05T05:52:14.390Z,0.71
2019-02-05T05:53:14.378Z,0.77
2019-02-05T05:54:14.374Z,0.71
2019-02-05T05:55:14.356Z,0.75
2019-02-05T05:56:14.349Z,0.77
2019-02-05T05:57:14.345Z,0.74
2019-02-05T05:58:22.294Z,0.80
2019-02-05T05:59:15.315Z,0.74
2019-02-05T06:00:14.313Z,0.80
2019-02-05T06:01:14.296Z,0.77
2019-02-05T06:02:14.294Z,0.71
2019-02-05T06:03:14.271Z,0.70
2019-02-05T06:04:14.263Z,0.70
2019-02-05T06:05:14.247Z,0.75
2019-02-05T06:06:14.244Z,0.80
2019-02-05T06:07:14.237Z,0.75
2019-02-05T06:08:14.217Z,0.74
2019-02-05T06:09:14.210Z,0.84
2019-02-05T06:10:14.195Z,0.86
2019-02-05T06:11:14.183Z,0.82
2019-02-05T06:12:14.211Z,0.89
2019-02-05T06:13:14.165Z,0.88
2019-02-05T06:14:14.161Z,0.82
2019-02-05T06:15:14.146Z,0.88
2019-02-05T06:16:14.130Z,0.90
2019-02-05T06:17:14.125Z,0.90
2019-02-05T06:18:14.126Z,0.88
2019-02-05T06:19:14.104Z,0.86
2019-02-05T06:20:14.102Z,0.90
2019-02-05T06:21:14.083Z,0.95
2019-02-05T06:22:14.075Z,0.93
2019-02-05T06:23:14.094Z,0.89
2019-02-05T06:24:14.051Z,0.90
2019-02-05T06:25:14.053Z,0.89
2019-02-05T06:26:14.030Z,0.92
2019-02-05T06:27:14.014Z,0.99
2019-02-05T06:28:14.010Z,0.92
2019-02-05T06:29:14.004Z,0.89
2019-02-05T06:30:13.984Z,0.88
2019-02-05T06:31:13.982Z,0.95
2019-02-05T06:32:13.962Z,0.99
2019-02-05T06:33:13.956Z,0.99
2019-02-05T06:34:13.970Z,1.07
2019-02-05T06:35:13.929Z,1.04
2019-02-05T06:36:13.927Z,1.02
2019-02-05T06:37:13.909Z,1.08
2019-02-05T06:38:13.896Z,1.07
2019-02-05T06:39:13.893Z,1.08
2019-02-05T06:40:13.886Z,1.00
2019-02-05T06:41:13.874Z,1.07
2019-02-05T06:42:13.854Z,1.07
2019-02-05T06:43:13.846Z,1.10
2019-02-05T06:44:13.833Z,1.08
2019-02-05T06:45:13.835Z,1.10
2019-02-05T06:46:13.894Z,1.08
2019-02-05T06:47:13.808Z,1.17
2019-02-05T06:48:13.794Z,1.10
2019-02-05T06:49:13.779Z,1.13
2019-02-05T06:50:13.773Z,1.11
2019-02-05T06:51:13.765Z,1.14
2019-02-05T06:52:13.786Z,1.10
2019-02-05T06:53:13.737Z,1.14
2019-02-05T06:54:13.725Z,1.18
2019-02-05T06:55:13.721Z,1.18
2019-02-05T06:56:13.710Z,1.14
2019-02-05T06:57:13.697Z,1.25
2019-02-05T06:58:13.693Z,1.21
2019-02-05T06:59:13.678Z,1.08
2019-02-05T07:00:13.662Z,1.24
2019-02-05T07:01:13.651Z,1.11
2019-02-05T07:02:13.647Z,1.13
2019-02-05T07:03:13.640Z,1.08
2019-02-05T07:04:13.625Z,1.10
2019-02-05T07:05:13.610Z,1.11
2019-02-05T07:06:13.598Z,1.13
2019-02-05T07:07:13.590Z,1.07
2019-02-05T07:08:13.578Z,1.16
2019-02-05T07:09:13.596Z,1.11
2019-02-05T07:10:13.561Z,1.28
2019-02-05T07:11:13.552Z,1.24
2019-02-05T07:12:13.538Z,1.21
2019-02-05T07:13:13.523Z,1.20
2019-02-05T07:14:13.513Z,1.17
2019-02-05T07:15:13.515Z,1.29
2019-02-05T07:16:13.492Z,1.26
2019-02-05T07:17:13.493Z,1.29
2019-02-05T07:18:13.471Z,1.36
2019-02-05T07:19:13.459Z,1.38
2019-02-05T07:20:13.484Z,1.34
2019-02-05T07:21:13.438Z,1.36
2019-02-05T07:22:13.429Z,1.31
2019-02-05T07:23:13.427Z,1.36
2019-02-05T07:24:13.411Z,1.34
2019-02-05T07:25:13.397Z,1.39
2019-02-05T07:26:13.405Z,1.35
2019-02-05T07:27:13.379Z,1.43
2019-02-05T07:28:13.376Z,1.44
2019-02-05T07:29:13.358Z,1.35
2019-02-05T07:30:13.354Z,1.42
2019-02-05T07:31:13.338Z,1.44
2019-02-05T07:32:13.325Z,1.39
2019-02-05T07:33:13.318Z,1.36
2019-02-05T07:34:13.315Z,1.43
2019-02-05T07:35:13.296Z,1.44
2019-02-05T07:36:13.294Z,1.42
2019-02-05T07:37:13.270Z,1.32
2019-02-05T07:38:13.265Z,1.43
2019-02-05T07:39:13.250Z,1.39
2019-02-05T07:40:13.244Z,1.39
2019-02-05T07:41:13.244Z,1.44
2019-02-05T07:42:13.228Z,1.42
2019-02-05T07:43:13.206Z,1.43
2019-02-05T07:44:13.206Z,1.49
2019-02-05T07:45:13.192Z,1.49
2019-02-05T07:46:13.188Z,1.54
2019-02-05T07:47:13.165Z,1.61
2019-02-05T07:48:13.165Z,1.56
2019-02-05T07:49:13.152Z,1.60
2019-02-05T07:50:15.516Z,1.70
2019-02-05T07:51:13.137Z,1.54
2019-02-05T07:52:13.111Z,1.68
2019-02-05T07:53:13.115Z,1.65
2019-02-05T07:54:13.092Z,1.60
2019-02-05T07:55:13.091Z,1.56
2019-02-05T07:56:13.078Z,1.56
2019-02-05T07:57:13.073Z,1.60
2019-02-05T07:58:13.052Z,1.56
2019-02-05T07:59:13.049Z,1.50
2019-02-05T08:00:13.029Z,1.60
2019-02-05T08:01:13.019Z,1.63
2019-02-05T08:02:13.011Z,1.50
2019-02-05T08:03:12.996Z,1.54
2019-02-05T08:04:13.028Z,1.54
2019-02-05T08:05:12.978Z,1.65
2019-02-05T08:06:12.969Z,1.63
2019-02-05T08:07:12.955Z,1.64
2019-02-05T08:08:12.945Z,1.68
2019-02-05T08:09:12.936Z,1.64
2019-02-05T08:10:12.940Z,1.67
2019-02-05T08:11:12.913Z,1.60
2019-02-05T08:12:12.912Z,1.68
2019-02-05T08:13:12.896Z,1.71
2019-02-05T08:14:12.881Z,1.67
2019-02-05T08:15:12.884Z,1.65
2019-02-05T08:16:12.864Z,1.70
2019-02-05T08:17:12.856Z,1.68
2019-02-05T08:18:12.839Z,1.77
2019-02-05T08:19:12.831Z,1.71
2019-02-05T08:20:12.830Z,1.75
2019-02-05T08:21:12.813Z,1.75
2019-02-05T08:22:12.801Z,1.79
2019-02-05T08:23:12.787Z,1.83
2019-02-05T08:24:12.777Z,1.74
2019-02-05T08:25:12.809Z,1.83
2019-02-05T08:26:12.762Z,1.77
2019-02-05T08:27:12.750Z,1.77
2019-02-05T08:28:12.739Z,1.77
2019-02-05T08:29:21.373Z,1.81
2019-02-05T08:30:13.754Z,1.77
2019-02-05T08:31:12.704Z,1.81
2019-02-05T08:32:12.694Z,1.79
2019-02-05T08:33:12.689Z,1.79
2019-02-05T08:34:12.676Z,1.89
2019-02-05T08:35:12.661Z,1.88
2019-02-05T08:36:12.664Z,1.93
2019-02-05T08:37:12.645Z,1.88
2019-02-05T08:38:12.634Z,1.92
2019-02-05T08:39:12.623Z,1.85
2019-02-05T08:40:12.615Z,1.86
2019-02-05T08:41:12.642Z,1.89
2019-02-05T08:42:12.585Z,1.92
2019-02-05T08:43:12.578Z,1.89
2019-02-05T08:44:12.567Z,1.93
2019-02-05T08:45:14.297Z,1.90
2019-02-05T08:46:12.543Z,1.90
2019-02-05T08:47:12.547Z,1.98
2019-02-05T08:48:12.529Z,1.95
2019-02-05T08:49:12.516Z,1.95
2019-02-05T08:50:12.503Z,1.93
2019-02-05T08:51:12.495Z,1.93
2019-02-05T08:52:12.491Z,1.93
2019-02-05T08:53:12.486Z,1.95
2019-02-05T08:54:12.457Z,1.98
2019-02-05T08:55:12.451Z,1.93
2019-02-05T08:56:12.444Z,1.92
2019-02-05T08:57:12.427Z,1.88
2019-02-05T08:58:12.428Z,1.95
2019-02-05T08:59:12.409Z,1.95
2019-02-05T09:00:12.394Z,1.98
2019-02-05T09:01:14.501Z,2.01
2019-02-05T09:02:12.378Z,1.93
2019-02-05T09:03:12.376Z,1.92
2019-02-05T09:04:12.352Z,2.04
2019-02-05T09:05:12.345Z,2.05
2019-02-05T09:06:12.336Z,2.09
2019-02-05T09:07:12.326Z,2.08
2019-02-05T09:08:12.318Z,2.04
2019-02-05T09:09:12.308Z,2.09
2019-02-05T09:10:12.294Z,2.08
2019-02-05T09:11:12.277Z,2.04
2019-02-05T09:12:12.271Z,2.22
2019-02-05T09:13:12.284Z,2.18
2019-02-05T09:14:13.509Z,2.18
2019-02-05T09:15:12.238Z,2.18
2019-02-05T09:16:12.227Z,2.20
2019-02-05T09:17:12.214Z,2.22
2019-02-05T09:18:12.200Z,2.20
2019-02-05T09:19:12.225Z,2.19
2019-02-05T09:20:12.179Z,2.30
2019-02-05T09:21:12.175Z,2.36
2019-02-05T09:22:12.167Z,2.26
2019-02-05T09:23:14.332Z,2.26
2019-02-05T09:24:12.141Z,2.36
2019-02-05T09:25:12.135Z,2.30
2019-02-05T09:26:12.120Z,2.27
2019-02-05T09:27:12.112Z,2.32
2019-02-05T09:28:12.104Z,2.36
2019-02-05T09:29:12.092Z,2.36
2019-02-05T09:30:12.072Z,2.40
2019-02-05T09:31:12.060Z,2.33
2019-02-05T09:32:12.057Z,2.40
2019-02-05T09:33:12.095Z,2.45
2019-02-05T09:34:12.030Z,2.29
2019-02-05T09:35:12.028Z,2.29
2019-02-05T09:36:12.008Z,2.32
2019-02-05T09:37:12.004Z,2.30
2019-02-05T09:38:12.130Z,2.45
2019-02-05T09:39:11.987Z,2.41
2019-02-05T09:40:11.966Z,2.33
2019-02-05T09:41:11.959Z,2.41
2019-02-05T09:42:11.948Z,2.30
2019-02-05T09:43:11.938Z,2.30
2019-02-05T09:44:11.930Z,2.36
2019-02-05T09:45:11.911Z,2.36
2019-02-05T09:46:11.905Z,2.47
2019-02-05T09:47:19.784Z,2.41
2019-02-05T09:48:11.887Z,2.50
2019-02-05T09:49:11.877Z,2.51
2019-02-05T09:50:11.861Z,2.48
2019-02-05T09:51:11.852Z,2.50
2019-02-05T09:52:11.840Z,2.53
2019-02-05T09:53:11.843Z,2.50
2019-02-05T09:54:11.816Z,2.58
2019-02-05T09:55:11.813Z,2.62
2019-02-05T09:56:11.803Z,2.61
2019-02-05T09:57:11.789Z,2.69
2019-02-05T09:58:11.784Z,2.66
2019-02-05T09:59:11.765Z,2.59
2019-02-05T10:00:11.758Z,2.61
2019-02-05T10:01:11.804Z,2.63
2019-02-05T10:02:11.735Z,2.68
2019-02-05T10:03:11.728Z,2.61
2019-02-05T10:04:11.710Z,2.58
2019-02-05T10:05:11.705Z,2.58
2019-02-05T10:06:11.687Z,2.61
2019-02-05T10:07:11.684Z,2.63
2019-02-05T10:08:11.680Z,2.73
2019-02-05T10:09:11.657Z,2.76
2019-02-05T10:10:11.652Z,2.71
2019-02-05T10:11:11.656Z,2.74
2019-02-05T10:12:11.623Z,2.68
2019-02-05T10:13:11.619Z,2.77
2019-02-05T10:14:11.602Z,2.73
2019-02-05T10:15:11.596Z,2.84
2019-02-05T10:16:11.586Z,2.83
2019-02-05T10:17:11.608Z,2.84
2019-02-05T10:18:11.565Z,2.87
2019-02-05T10:19:11.550Z,2.79
2019-02-05T10:20:11.539Z,2.81
2019-02-05T10:21:11.528Z,2.86
2019-02-05T10:22:11.523Z,2.86
2019-02-05T10:23:11.569Z,2.98
2019-02-05T10:24:11.506Z,2.90
2019-02-05T10:25:11.487Z,3.04
2019-02-05T10:26:11.488Z,3.01
2019-02-05T10:27:11.464Z,2.95
2019-02-05T10:28:11.455Z,2.99
2019-02-05T10:29:11.444Z,2.99
2019-02-05T10:30:11.450Z,3.02
2019-02-05T10:31:11.427Z,3.12
2019-02-05T10:32:11.410Z,2.97
2019-02-05T10:33:11.407Z,2.98
2019-02-05T10:34:11.395Z,2.98
2019-02-05T10:35:11.388Z,3.02
2019-02-05T10:36:11.381Z,3.08
2019-02-05T10:37:11.358Z,3.15
2019-02-05T10:38:11.349Z,3.15
2019-02-05T10:39:11.337Z,3.16
2019-02-05T10:40:11.327Z,3.17
2019-02-05T10:41:11.330Z,3.19
2019-02-05T10:42:11.311Z,3.22
2019-02-05T10:43:11.299Z,3.22
2019-02-05T10:44:11.284Z,3.19
2019-02-05T10:45:11.273Z,3.26
2019-02-05T10:46:11.317Z,3.22
2019-02-05T10:47:11.256Z,3.22
2019-02-05T10:48:11.247Z,3.22
2019-02-05T10:49:11.235Z,3.22
2019-02-05T10:50:11.221Z,3.26
2019-02-05T10:51:11.208Z,3.25
2019-02-05T10:52:11.336Z,3.25
2019-02-05T10:53:11.193Z,3.19
2019-02-05T10:54:11.194Z,3.16
2019-02-05T10:55:11.173Z,3.26
2019-02-05T10:56:11.155Z,3.33
2019-02-05T10:57:11.153Z,3.17
2019-02-05T10:58:11.133Z,3.17
2019-02-05T10:59:11.148Z,3.12
2019-02-05T11:00:11.119Z,3.23
2019-02-05T11:01:11.107Z,3.22
2019-02-05T11:02:11.142Z,3.25
2019-02-05T11:03:11.086Z,3.16
2019-02-05T11:04:11.068Z,3.25
2019-02-05T11:05:11.062Z,3.23
2019-02-05T11:06:11.051Z,3.25
2019-02-05T11:07:11.038Z,3.16
2019-02-05T11:08:11.049Z,3.23
2019-02-05T11:09:11.014Z,3.34
2019-02-05T11:10:11.004Z,3.26
2019-02-05T11:11:10.993Z,3.23
2019-02-05T11:12:10.988Z,3.35
2019-02-05T11:13:11.029Z,3.28
2019-02-05T11:14:10.962Z,3.41
2019-02-05T11:15:10.958Z,3.26
2019-02-05T11:16:10.944Z,3.39
2019-02-05T11:17:10.932Z,3.39
2019-02-05T11:18:10.921Z,3.42
2019-02-05T11:19:10.928Z,3.44
2019-02-05T11:20:10.899Z,3.39
2019-02-05T11:21:10.892Z,3.57
2019-02-05T11:22:10.880Z,3.45
2019-02-05T11:23:10.865Z,3.49
2019-02-05T11:24:10.862Z,3.60
2019-02-05T11:25:10.852Z,3.63
2019-02-05T11:26:10.852Z,3.67
2019-02-05T11:27:10.827Z,3.59
2019-02-05T11:28:10.814Z,3.68
2019-02-05T11:29:10.808Z,3.63
2019-02-05T11:30:19.876Z,3.64
2019-02-05T11:31:11.788Z,3.54
2019-02-05T11:32:10.774Z,3.63
2019-02-05T11:33:10.763Z,3.70
2019-02-05T11:34:10.746Z,3.62
2019-02-05T11:35:10.740Z,3.60
2019-02-05T11:36:10.769Z,3.67
2019-02-05T11:37:10.713Z,3.71
2019-02-05T11:38:10.708Z,3.71
2019-02-05T11:39:10.695Z,3.71
2019-02-05T11:40:10.683Z,3.84
2019-02-05T11:41:13.534Z,3.80
2019-02-05T11:42:10.668Z,3.84
2019-02-05T11:43:10.649Z,3.90
2019-02-05T11:44:10.645Z,3.99
2019-02-05T11:45:10.631Z,3.90
2019-02-05T11:46:10.642Z,3.98
2019-02-05T11:47:10.606Z,3.93
2019-02-05T11:48:10.595Z,3.95
2019-02-05T11:49:10.587Z,3.89
2019-02-05T11:50:10.578Z,3.88
2019-02-05T11:51:10.583Z,3.82
2019-02-05T11:52:10.572Z,3.80
2019-02-05T11:53:10.555Z,3.88
2019-02-05T11:54:10.535Z,3.82
2019-02-05T11:55:10.523Z,3.84
2019-02-05T11:56:10.515Z,3.81
2019-02-05T11:57:10.508Z,3.84
2019-02-05T11:58:10.499Z,3.80
2019-02-05T11:59:10.485Z,3.81
2019-02-05T12:00:10.467Z,3.90
2019-02-05T12:01:10.462Z,3.84
2019-02-05T12:02:10.452Z,3.90
2019-02-05T12:03:10.447Z,3.90
2019-02-05T12:04:10.427Z,3.92
2019-02-05T12:05:10.418Z,3.84
2019-02-05T12:06:10.402Z,3.88
2019-02-05T12:07:10.409Z,3.89
2019-02-05T12:08:10.394Z,3.88
2019-02-05T12:09:10.378Z,3.88
2019-02-05T12:10:10.364Z,3.90
2019-02-05T12:11:10.354Z,3.89
2019-02-05T12:12:10.339Z,3.95
2019-02-05T12:13:10.349Z,3.90
2019-02-05T12:14:10.316Z,3.96
2019-02-05T12:15:10.304Z,3.93
2019-02-05T12:16:10.302Z,3.88
2019-02-05T12:17:10.288Z,3.89
2019-02-05T12:18:10.291Z,3.99
2019-02-05T12:19:10.261Z,3.84
2019-02-05T12:20:10.266Z,3.99
2019-02-05T12:21:10.240Z,3.90
2019-02-05T12:22:10.234Z,3.98
2019-02-05T12:23:10.228Z,3.92
2019-02-05T12:24:10.250Z,3.96
2019-02-05T12:25:10.197Z,3.93
2019-02-05T12:26:10.188Z,4.00
2019-02-05T12:27:10.176Z,3.93
2019-02-05T12:28:10.172Z,3.95
2019-02-05T12:29:10.159Z,3.96
2019-02-05T12:30:10.154Z,4.07
2019-02-05T12:31:10.139Z,4.00
2019-02-05T12:32:10.128Z,3.99
2019-02-05T12:33:10.115Z,4.06
2019-02-05T12:34:10.111Z,3.93
2019-02-05T12:35:10.135Z,4.00
2019-02-05T12:36:10.080Z,3.98
2019-02-05T12:37:10.075Z,4.06
2019-02-05T12:38:10.073Z,3.98
2019-02-05T12:39:10.053Z,3.98
2019-02-05T12:40:10.046Z,4.11
2019-02-05T12:41:10.035Z,4.08
2019-02-05T12:42:10.021Z,3.92
2019-02-05T12:43:10.009Z,3.92
2019-02-05T12:44:09.998Z,3.92
2019-02-05T12:45:09.990Z,4.10
2019-02-05T12:46:09.982Z,3.99
2019-02-05T12:47:09.961Z,3.98
2019-02-05T12:48:09.990Z,3.98
2019-02-05T12:49:09.949Z,4.02
2019-02-05T12:50:09.947Z,4.02
2019-02-05T12:51:09.927Z,4.11
2019-02-05T12:52:09.913Z,3.88
2019-02-05T12:53:09.902Z,4.08
2019-02-05T12:54:09.902Z,3.99
2019-02-05T12:55:13.896Z,4.04
2019-02-05T12:56:10.872Z,4.04
2019-02-05T12:57:09.860Z,4.10
2019-02-05T12:58:09.846Z,3.99
2019-02-05T12:59:09.902Z,4.10
2019-02-05T13:00:09.867Z,4.06
2019-02-05T13:01:09.820Z,4.10
2019-02-05T13:02:09.801Z,4.10
2019-02-05T13:03:09.796Z,4.17
2019-02-05T13:04:09.788Z,4.24
2019-02-05T13:05:09.770Z,4.13
2019-02-05T13:06:09.775Z,4.14
2019-02-05T13:07:09.753Z,4.24
2019-02-05T13:08:09.744Z,4.21
2019-02-05T13:09:09.727Z,4.18
2019-02-05T13:10:09.717Z,4.10
2019-02-05T13:11:09.718Z,4.17
2019-02-05T13:12:09.697Z,4.17
2019-02-05T13:13:09.687Z,4.17
2019-02-05T13:14:09.681Z,4.25
2019-02-05T13:15:09.663Z,4.11
2019-02-05T13:16:09.659Z,4.14
2019-02-05T13:17:09.641Z,4.25
2019-02-05T13:18:09.644Z,4.06